Time;durP1;ratioP1;P1;durP2;ratioP2;P2;SDS_P1;SDS_P2;PMS_P1;PMS_P2;Temp;Humidity;BMP_temperature;BMP_pressure;BME280_temperature;BME280_humidity;BME280_pressure;Samples;Min_cycle;Max_cycle;Signal;HPM_P1;HPM_P2
2021/04/01 00:01:14;;;;;;;9.75;3.75;;;12.00;99.90;;;;;;5009155;28;20034;-63
2021/04/01 00:03:42;;;;;;;9.13;4.15;;;12.00;99.90;;;;;;5010590;28;20068;-62
2021/04/01 00:06:08;;;;;;;5.75;4.05;;;11.90;99.90;;;;;;5006740;28;20095;-63
2021/04/01 00:08:34;;;;;;;9.93;4.93;;;11.80;99.90;;;;;;4997397;28;20032;-63
2021/04/01 00:11:00;;;;;;;12.88;3.55;;;12.00;99.90;;;;;;5008876;28;20109;-63
2021/04/01 00:13:27;;;;;;;10.82;3.83;;;11.80;99.90;;;;;;5003145;28;20037;-62
2021/04/01 00:15:54;;;;;;;11.35;4.10;;;11.80;99.90;;;;;;5009786;28;20023;-62
2021/04/01 00:18:21;;;;;;;11.68;3.97;;;11.80;99.90;;;;;;5001190;28;20065;-62
2021/04/01 00:20:47;;;;;;;15.07;3.92;;;11.80;99.90;;;;;;5008910;28;20030;-62
2021/04/01 00:23:13;;;;;;;11.60;4.28;;;11.80;99.90;;;;;;5001140;28;20113;-62
2021/04/01 00:25:39;;;;;;;10.68;4.03;;;11.70;99.90;;;;;;5008301;28;20808;-62
2021/04/01 00:28:05;;;;;;;8.40;4.18;;;11.70;99.90;;;;;;5001880;28;20038;-62
2021/04/01 00:30:31;;;;;;;11.15;3.95;;;11.70;99.90;;;;;;5007164;28;20101;-63
2021/04/01 00:32:56;;;;;;;10.38;4.25;;;11.80;99.90;;;;;;5002395;28;20118;-63
2021/04/01 00:35:22;;;;;;;10.88;4.65;;;11.80;99.90;;;;;;5005175;28;20029;-63
2021/04/01 00:37:48;;;;;;;10.00;4.50;;;11.60;99.90;;;;;;5002571;28;20072;-62
2021/04/01 00:40:14;;;;;;;8.32;4.43;;;11.60;99.90;;;;;;5004195;28;20018;-62
2021/04/01 00:42:40;;;;;;;11.77;4.63;;;11.60;99.90;;;;;;4999583;28;20026;-62
2021/04/01 00:45:09;;;;;;;14.68;4.15;;;11.70;99.90;;;;;;5002159;28;20103;-62
2021/04/01 00:47:36;;;;;;;12.02;4.28;;;11.60;99.90;;;;;;5005116;28;20410;-62
2021/04/01 00:50:04;;;;;;;9.23;4.95;;;11.60;99.90;;;;;;5010472;28;20284;-62
2021/04/01 00:52:30;;;;;;;14.15;4.80;;;11.60;99.90;;;;;;4996302;28;20030;-63
2021/04/01 00:54:56;;;;;;;9.55;4.72;;;11.70;99.90;;;;;;4998934;28;20559;-62
2021/04/01 00:57:22;;;;;;;8.07;4.10;;;11.70;99.90;;;;;;4996974;28;20022;-62
2021/04/01 00:59:48;;;;;;;11.10;4.40;;;11.70;99.90;;;;;;4997067;28;20061;-63
2021/04/01 01:02:13;;;;;;;8.77;4.55;;;11.60;99.90;;;;;;5012600;28;20017;-62
2021/04/01 01:04:40;;;;;;;12.07;4.45;;;11.50;99.90;;;;;;5019444;28;20030;-62
2021/04/01 01:07:06;;;;;;;13.02;4.03;;;11.60;99.90;;;;;;5018834;28;20041;-62
2021/04/01 01:09:31;;;;;;;9.02;4.10;;;11.70;99.90;;;;;;5030174;28;20485;-62
2021/04/01 01:11:57;;;;;;;12.18;4.50;;;11.50;99.90;;;;;;5012308;28;20023;-63
2021/04/01 01:14:23;;;;;;;10.65;4.25;;;11.50;99.90;;;;;;5009571;28;20038;-62
2021/04/01 01:16:48;;;;;;;8.10;4.28;;;11.70;99.90;;;;;;5012738;28;20037;-63
2021/04/01 01:19:16;;;;;;;12.95;4.70;;;11.60;99.90;;;;;;5023217;28;20025;-62
2021/04/01 01:21:43;;;;;;;11.07;4.10;;;11.50;99.90;;;;;;5011927;28;20038;-62
2021/04/01 01:24:16;;;;;;;9.80;4.10;;;11.50;99.90;;;;;;5021523;28;20100;-62
2021/04/01 01:26:43;;;;;;;12.27;4.38;;;11.60;99.90;;;;;;5012747;28;20036;-63
2021/04/01 01:29:10;;;;;;;10.90;5.53;;;11.50;99.90;;;;;;5019280;28;20036;-62
2021/04/01 01:31:40;;;;;;;11.85;5.18;;;11.60;99.90;;;;;;5013512;28;20486;-62
2021/04/01 01:34:06;;;;;;;9.48;4.85;;;11.40;99.90;;;;;;5017410;28;20025;-63
2021/04/01 01:36:32;;;;;;;6.65;4.00;;;11.50;99.90;;;;;;5013471;28;20033;-62
2021/04/01 01:38:57;;;;;;;11.48;4.93;;;11.50;99.90;;;;;;5015511;28;20141;-62
2021/04/01 01:41:23;;;;;;;11.18;4.60;;;11.70;99.90;;;;;;5017442;28;20034;-62
2021/04/01 01:43:49;;;;;;;8.60;4.85;;;11.60;99.90;;;;;;5011686;28;20594;-62
2021/04/01 01:46:15;;;;;;;13.88;5.15;;;11.40;99.90;;;;;;5021042;28;20014;-63
2021/04/01 01:48:41;;;;;;;9.48;4.50;;;11.60;99.90;;;;;;5003326;28;20041;-62
2021/04/01 01:51:07;;;;;;;16.63;4.65;;;11.50;99.90;;;;;;5018554;28;20087;-62
2021/04/01 01:53:33;;;;;;;10.88;5.10;;;11.40;99.90;;;;;;5001560;28;20056;-63
2021/04/01 01:55:58;;;;;;;18.98;4.85;;;11.50;99.90;;;;;;5017556;28;20379;-62
2021/04/01 01:58:24;;;;;;;10.43;4.80;;;11.50;99.90;;;;;;5007803;28;20087;-62
2021/04/01 02:00:53;;;;;;;9.50;4.20;;;11.50;99.90;;;;;;5022109;28;20505;-62
2021/04/01 02:03:19;;;;;;;12.05;4.82;;;11.50;99.90;;;;;;5012180;28;20022;-62
2021/04/01 02:05:44;;;;;;;15.20;5.38;;;11.40;99.90;;;;;;5022583;28;20054;-62
2021/04/01 02:08:12;;;;;;;12.88;5.07;;;11.50;99.90;;;;;;5004600;28;20095;-62
2021/04/01 02:10:43;;;;;;;9.65;4.63;;;11.40;99.90;;;;;;5025362;28;20025;-62
2021/04/01 02:13:10;;;;;;;8.75;4.93;;;11.30;99.90;;;;;;5014086;28;20037;-62
2021/04/01 02:15:37;;;;;;;16.98;5.22;;;11.50;99.90;;;;;;5024819;28;20109;-62
2021/04/01 02:18:03;;;;;;;12.70;4.63;;;11.40;99.90;;;;;;5011454;28;20057;-62
2021/04/01 02:20:29;;;;;;;12.18;4.90;;;11.50;99.90;;;;;;5023932;28;20064;-63
2021/04/01 02:22:55;;;;;;;14.73;5.03;;;11.40;99.90;;;;;;5009145;28;20037;-62
2021/04/01 02:25:21;;;;;;;13.70;4.72;;;11.50;99.90;;;;;;5023670;28;20029;-62
2021/04/01 02:27:46;;;;;;;14.25;5.30;;;11.40;99.90;;;;;;5007762;28;20033;-63
2021/04/01 02:30:13;;;;;;;15.70;4.88;;;11.40;99.90;;;;;;5022385;28;20501;-62
2021/04/01 02:32:39;;;;;;;16.42;5.22;;;11.40;99.90;;;;;;5007158;28;20025;-62
2021/04/01 02:35:05;;;;;;;12.00;5.75;;;11.30;99.90;;;;;;5026431;28;20030;-62
2021/04/01 02:37:31;;;;;;;17.55;5.68;;;11.40;99.90;;;;;;5010615;28;20185;-63
2021/04/01 02:39:57;;;;;;;14.43;5.70;;;11.40;99.90;;;;;;5020673;28;20033;-62
2021/04/01 02:42:22;;;;;;;11.15;5.85;;;11.30;99.90;;;;;;5011834;28;20038;-62
2021/04/01 02:44:48;;;;;;;14.90;6.15;;;11.20;99.90;;;;;;5022948;28;20017;-63
2021/04/01 02:47:14;;;;;;;14.68;6.00;;;11.30;99.90;;;;;;5011272;28;20390;-63
2021/04/01 02:49:39;;;;;;;16.48;5.50;;;11.10;99.90;;;;;;5019820;28;20417;-63
2021/04/01 02:52:06;;;;;;;20.33;5.55;;;11.40;99.90;;;;;;5009451;28;20030;-63
2021/04/01 02:54:31;;;;;;;13.93;5.57;;;11.20;99.90;;;;;;5016572;28;20025;-63
2021/04/01 02:56:57;;;;;;;11.93;5.18;;;11.20;99.90;;;;;;5009538;28;20096;-63
2021/04/01 02:59:23;;;;;;;11.80;5.70;;;11.10;99.90;;;;;;5014148;28;20044;-63
2021/04/01 03:01:48;;;;;;;17.17;5.72;;;11.10;99.90;;;;;;5012736;28;20457;-63
2021/04/01 03:04:14;;;;;;;18.65;5.85;;;11.20;99.90;;;;;;5022994;28;20009;-63
2021/04/01 03:06:40;;;;;;;13.68;4.80;;;11.10;99.90;;;;;;5011054;28;20058;-63
2021/04/01 03:09:06;;;;;;;11.75;5.30;;;11.00;99.90;;;;;;5021696;28;20060;-63
2021/04/01 03:11:31;;;;;;;12.10;5.43;;;11.20;99.90;;;;;;5013039;28;20505;-63
2021/04/01 03:13:57;;;;;;;16.13;4.93;;;11.10;99.90;;;;;;5021723;28;20064;-63
2021/04/01 03:16:24;;;;;;;11.43;5.22;;;11.20;99.90;;;;;;5018591;28;20106;-63
2021/04/01 03:18:50;;;;;;;9.75;4.88;;;11.00;99.90;;;;;;5034438;28;20034;-63
2021/04/01 03:21:16;;;;;;;17.13;5.72;;;11.10;99.90;;;;;;5021392;28;20050;-63
2021/04/01 03:23:41;;;;;;;17.27;5.97;;;11.00;99.90;;;;;;5011233;28;20030;-63
2021/04/01 03:26:07;;;;;;;19.40;5.50;;;11.10;99.90;;;;;;4995563;28;20014;-64
2021/04/01 03:28:33;;;;;;;10.98;6.30;;;11.00;99.90;;;;;;5006045;28;20054;-65
2021/04/01 03:31:01;;;;;;;13.50;6.20;;;10.90;99.90;;;;;;5010407;28;20030;-63
2021/04/01 03:33:28;;;;;;;16.63;5.75;;;11.00;99.90;;;;;;5010409;28;20018;-63
2021/04/01 03:35:54;;;;;;;16.88;5.75;;;11.10;99.90;;;;;;5009485;28;20085;-63
2021/04/01 03:38:20;;;;;;;13.93;5.95;;;11.00;99.90;;;;;;5015974;28;20025;-63
2021/04/01 03:40:47;;;;;;;16.00;6.78;;;11.00;99.90;;;;;;5015616;28;20026;-64
2021/04/01 03:43:13;;;;;;;12.73;6.28;;;10.90;99.90;;;;;;4994688;28;20029;-63
2021/04/01 03:45:39;;;;;;;17.70;6.75;;;10.90;99.90;;;;;;4993291;28;20096;-64
2021/04/01 03:48:05;;;;;;;21.25;7.53;;;11.10;99.90;;;;;;5004848;28;20129;-64
2021/04/01 03:50:31;;;;;;;18.45;6.60;;;11.00;99.90;;;;;;5010776;28;20497;-63
2021/04/01 03:52:56;;;;;;;17.48;5.93;;;11.00;99.90;;;;;;5008404;28;20026;-63
2021/04/01 04:16:32;;;;;;;15.25;6.13;;;10.90;99.90;;;;;;5018578;28;20076;-63
2021/04/01 04:18:57;;;;;;;15.00;6.13;;;10.80;99.90;;;;;;5002992;28;20030;-63
2021/04/01 04:21:23;;;;;;;15.77;5.78;;;10.80;99.90;;;;;;5008475;28;20495;-64
2021/04/01 04:23:50;;;;;;;13.00;6.05;;;10.80;99.90;;;;;;5009367;28;20480;-63
2021/04/01 04:26:16;;;;;;;16.45;6.55;;;10.80;99.90;;;;;;5007089;28;20430;-64
2021/04/01 04:28:43;;;;;;;16.20;6.38;;;10.90;99.90;;;;;;5000984;28;20065;-64
2021/04/01 04:31:09;;;;;;;17.58;5.53;;;10.80;99.90;;;;;;4997244;28;20032;-64
2021/04/01 04:33:35;;;;;;;13.02;6.03;;;10.80;99.90;;;;;;5011147;28;20104;-64
2021/04/01 04:36:01;;;;;;;14.27;5.80;;;10.80;99.90;;;;;;5009904;28;20026;-64
2021/04/01 04:38:27;;;;;;;14.15;5.70;;;10.80;99.90;;;;;;5006408;28;20161;-64
2021/04/01 04:40:57;;;;;;;18.30;6.28;;;10.80;99.90;;;;;;5008826;28;20033;-64
2021/04/01 04:43:28;;;;;;;14.23;5.78;;;10.70;99.90;;;;;;5007563;28;20030;-64
2021/04/01 04:45:55;;;;;;;24.38;6.68;;;10.90;99.90;;;;;;5024494;28;20490;-64
2021/04/01 04:48:21;;;;;;;20.50;6.22;;;10.70;99.90;;;;;;5008536;28;20049;-64
2021/04/01 04:50:47;;;;;;;14.35;5.68;;;10.70;99.90;;;;;;5008243;28;20029;-64
2021/04/01 04:53:14;;;;;;;15.30;5.63;;;10.60;99.90;;;;;;4997980;28;20486;-64
2021/04/01 04:55:41;;;;;;;21.85;6.40;;;10.70;99.90;;;;;;5008729;28;20037;-64
2021/04/01 04:58:12;;;;;;;11.57;6.10;;;10.70;99.90;;;;;;4998884;28;20030;-64
2021/04/01 05:06:37;;;;;;;15.90;6.18;;;10.60;99.90;;;;;;5009935;28;20095;-62
2021/04/01 05:09:03;;;;;;;20.08;6.18;;;10.60;99.90;;;;;;5022083;28;20034;-62
2021/04/01 05:11:32;;;;;;;19.10;6.60;;;10.60;99.90;;;;;;5019150;28;20026;-65
2021/04/01 05:13:58;;;;;;;15.70;6.32;;;10.80;99.90;;;;;;5014631;28;20128;-65
2021/04/01 05:16:24;;;;;;;17.13;6.45;;;10.70;99.90;;;;;;5016835;28;20118;-65
2021/04/01 05:18:49;;;;;;;15.60;6.47;;;10.60;99.90;;;;;;5023475;28;20029;-65
2021/04/01 05:21:17;;;;;;;20.13;6.38;;;10.60;99.90;;;;;;5018587;28;20030;-65
2021/04/01 05:23:54;;;;;;;14.75;6.35;;;10.60;99.90;;;;;;5019643;28;20017;-65
2021/04/01 05:28:51;;;;;;;19.55;5.97;;;10.60;99.90;;;;;;5019055;28;20036;-65
2021/04/01 05:31:19;;;;;;;12.35;6.53;;;10.60;99.90;;;;;;5018327;28;20030;-65
2021/04/01 05:33:47;;;;;;;16.63;6.05;;;10.60;99.90;;;;;;5016342;28;20040;-65
2021/04/01 05:36:20;;;;;;;12.35;6.10;;;10.60;99.90;;;;;;5019383;28;20087;-65
2021/04/01 05:38:46;;;;;;;22.45;6.65;;;10.60;99.90;;;;;;5010274;28;20040;-65
2021/04/01 05:41:12;;;;;;;13.55;5.60;;;10.70;99.90;;;;;;5017387;28;20025;-66
2021/04/01 05:43:43;;;;;;;15.80;6.68;;;10.50;99.90;;;;;;5003935;28;20037;-65
2021/04/01 06:02:39;;;;;;;16.98;6.63;;;10.60;99.90;;;;;;5000597;28;20040;-66
2021/04/01 06:05:10;;;;;;;15.63;6.93;;;10.60;99.90;;;;;;5007872;28;20032;-66
2021/04/01 06:07:42;;;;;;;15.82;6.20;;;10.60;99.90;;;;;;4995305;28;20018;-67
2021/04/01 06:10:09;;;;;;;12.65;6.97;;;10.60;99.90;;;;;;4999221;28;20033;-65
2021/04/01 06:12:35;;;;;;;18.60;6.72;;;10.60;99.90;;;;;;5006453;28;20045;-66
2021/04/01 06:15:14;;;;;;;20.48;6.30;;;10.60;99.90;;;;;;5008003;28;20105;-65
2021/04/01 06:17:46;;;;;;;14.63;6.05;;;10.70;99.90;;;;;;5002241;28;20029;-68
2021/04/01 06:20:13;;;;;;;12.48;6.18;;;10.70;99.90;;;;;;5001675;28;20616;-66
2021/04/01 06:22:43;;;;;;;16.27;6.28;;;10.70;99.90;;;;;;4999134;28;20030;-70
2021/04/01 06:25:17;;;;;;;16.30;6.45;;;10.70;99.90;;;;;;5000187;28;20061;-67
2021/04/01 06:27:51;;;;;;;18.00;6.45;;;10.80;99.90;;;;;;5002691;28;20076;-65
2021/04/01 06:30:25;;;;;;;18.08;5.72;;;10.80;99.90;;;;;;5000429;28;20061;-65
2021/04/01 06:33:02;;;;;;;15.40;5.78;;;10.90;99.90;;;;;;4998494;28;20021;-65
2021/04/01 06:35:31;;;;;;;18.92;6.07;;;10.80;99.90;;;;;;5000185;28;20033;-65
2021/04/01 06:40:39;;;;;;;16.52;5.90;;;11.00;99.90;;;;;;5000327;28;20129;-65
2021/04/01 06:43:17;;;;;;;15.57;6.13;;;10.90;99.90;;;;;;4995023;28;20036;-64
2021/04/01 06:45:47;;;;;;;19.98;6.18;;;11.00;99.90;;;;;;5007545;28;20022;-65
2021/04/01 06:48:18;;;;;;;13.38;5.60;;;11.00;99.90;;;;;;4999122;28;20042;-65
2021/04/01 06:50:46;;;;;;;13.43;6.28;;;11.00;99.90;;;;;;5010791;28;20018;-64
2021/04/01 06:53:19;;;;;;;16.70;6.35;;;11.20;99.90;;;;;;5000394;28;20038;-65
2021/04/01 06:56:02;;;;;;;13.10;5.50;;;11.20;99.90;;;;;;5011436;28;20091;-66
2021/04/01 06:58:45;;;;;;;18.13;5.72;;;11.20;99.90;;;;;;5008080;28;20045;-65
2021/04/01 07:01:37;;;;;;;12.75;5.13;;;11.20;99.90;;;;;;5009398;28;20034;-66
2021/04/01 07:04:06;;;;;;;24.38;6.03;;;11.30;99.90;;;;;;5005262;28;20024;-66
2021/04/01 07:06:37;;;;;;;18.05;5.57;;;11.30;99.90;;;;;;5009014;28;20205;-66
2021/04/01 07:12:19;;;;;;;13.18;5.95;;;11.40;99.90;;;;;;5006484;28;20578;-64
2021/04/01 07:14:47;;;;;;;15.60;6.63;;;11.60;99.90;;;;;;5007468;28;20490;-64
2021/04/01 07:17:26;;;;;;;16.42;5.55;;;11.70;99.90;;;;;;5006037;28;20022;-64
2021/04/01 07:47:35;;;;;;;12.38;4.80;;;12.50;99.90;;;;;;5011498;28;20573;-64
2021/04/01 07:50:18;;;;;;;11.05;4.60;;;12.60;99.90;;;;;;5026092;28;20608;-63
2021/04/01 07:52:55;;;;;;;11.43;4.90;;;12.70;99.90;;;;;;5010170;28;20056;-64
2021/04/01 07:58:06;;;;;;;15.40;5.00;;;12.90;99.90;;;;;;5006160;28;20088;-64
2021/04/01 08:06:20;;;;;;;12.57;4.22;;;13.20;99.90;;;;;;4995168;28;20044;-65
2021/04/01 08:08:49;;;;;;;22.45;5.05;;;13.30;99.90;;;;;;5001054;28;20045;-64
2021/04/01 08:11:26;;;;;;;21.95;5.15;;;13.10;99.90;;;;;;5008049;28;20466;-64
2021/04/01 08:14:21;;;;;;;15.10;5.15;;;13.40;99.90;;;;;;5001053;28;20041;-64
2021/04/01 08:16:54;;;;;;;11.73;4.50;;;13.50;99.90;;;;;;5004653;28;20026;-63
2021/04/01 08:19:22;;;;;;;9.55;4.88;;;13.50;99.90;;;;;;5000960;28;20026;-64
2021/04/01 08:21:50;;;;;;;9.15;4.40;;;13.50;99.90;;;;;;5006294;28;20164;-63
2021/04/01 08:24:30;;;;;;;15.70;4.82;;;13.70;99.90;;;;;;5004553;28;20594;-64
2021/04/01 08:35:12;;;;;;;18.02;5.00;;;13.80;99.90;;;;;;5006529;28;20072;-64
2021/04/01 08:37:48;;;;;;;10.43;4.25;;;13.90;99.90;;;;;;5004331;28;20040;-63
2021/04/01 08:40:14;;;;;;;15.60;4.38;;;14.20;99.90;;;;;;4999447;28;20034;-63
2021/04/01 08:43:08;;;;;;;19.20;4.45;;;14.10;99.90;;;;;;5007067;28;20025;-64
2021/04/01 08:45:50;;;;;;;14.10;4.72;;;14.30;99.90;;;;;;5007013;28;20624;-64
2021/04/01 08:48:50;;;;;;;13.32;4.43;;;14.20;99.90;;;;;;5008169;28;20700;-64
2021/04/01 08:51:53;;;;;;;12.82;4.45;;;14.30;99.90;;;;;;4996152;28;20071;-64
2021/04/01 08:54:28;;;;;;;18.60;4.53;;;14.40;99.90;;;;;;5023051;28;20117;-64
2021/04/01 08:57:04;;;;;;;9.52;4.93;;;14.80;99.90;;;;;;5022200;28;20147;-64
2021/04/01 08:59:44;;;;;;;18.83;5.07;;;14.60;99.90;;;;;;5021641;28;20014;-64
2021/04/01 09:02:14;;;;;;;14.57;4.10;;;14.70;99.90;;;;;;5010485;28;20037;-65
2021/04/01 09:04:47;;;;;;;16.23;4.63;;;14.70;99.90;;;;;;5013748;28;20056;-64
2021/04/01 09:07:26;;;;;;;12.38;4.40;;;14.60;99.90;;;;;;5006752;28;20085;-64
2021/04/01 09:09:59;;;;;;;19.08;4.35;;;14.70;99.90;;;;;;5015065;28;20045;-65
2021/04/01 09:12:36;;;;;;;20.45;4.68;;;15.20;99.90;;;;;;5009357;28;20426;-65
2021/04/01 09:15:06;;;;;;;16.40;4.22;;;15.10;99.90;;;;;;5006269;28;20017;-65
2021/04/01 09:17:34;;;;;;;16.45;4.55;;;15.10;99.90;;;;;;5005469;28;20506;-64
2021/04/01 09:20:24;;;;;;;17.70;4.25;;;15.30;99.90;;;;;;5017832;28;20079;-64
2021/04/01 09:22:56;;;;;;;14.48;4.00;;;15.30;99.90;;;;;;5001036;28;20030;-64
2021/04/01 09:25:23;;;;;;;12.07;3.95;;;15.30;99.90;;;;;;5019100;28;20113;-64
2021/04/01 09:27:51;;;;;;;13.93;4.47;;;15.40;99.90;;;;;;5012366;28;20037;-64
2021/04/01 09:30:20;;;;;;;16.52;4.15;;;15.40;99.90;;;;;;5030448;28;20386;-64
2021/04/01 09:32:49;;;;;;;14.27;4.78;;;15.90;99.90;;;;;;5010702;28;20018;-65
2021/04/01 09:35:16;;;;;;;10.32;4.32;;;15.80;99.90;;;;;;5029107;28;20540;-64
2021/04/01 09:37:54;;;;;;;9.25;3.97;;;15.60;99.90;;;;;;5008942;28;20382;-64
2021/04/01 09:40:26;;;;;;;18.13;3.90;;;15.70;99.90;;;;;;5029781;28;20026;-65
2021/04/01 09:42:53;;;;;;;16.27;3.63;;;16.00;99.90;;;;;;5012830;28;20021;-65
2021/04/01 09:45:29;;;;;;;21.20;4.07;;;16.10;99.90;;;;;;5024254;28;20180;-65
2021/04/01 09:48:00;;;;;;;19.02;4.60;;;16.30;99.90;;;;;;5009975;28;20129;-65
2021/04/01 09:50:30;;;;;;;13.18;4.00;;;16.30;99.90;;;;;;5029386;28;20116;-65
2021/04/01 09:53:14;;;;;;;17.75;4.45;;;16.40;99.90;;;;;;5007180;28;20026;-65
2021/04/01 09:55:42;;;;;;;15.38;4.25;;;16.40;99.90;;;;;;5004598;28;20025;-66
2021/04/01 09:58:23;;;;;;;22.90;4.55;;;16.50;99.90;;;;;;5005226;28;20026;-64
2021/04/01 10:01:33;;;;;;;14.68;3.70;;;16.70;99.90;;;;;;5025155;28;20032;-64
2021/04/01 10:04:12;;;;;;;23.17;4.00;;;16.40;99.90;;;;;;5012035;28;20045;-64
2021/04/01 10:06:47;;;;;;;22.48;4.22;;;16.60;99.90;;;;;;5013307;28;20114;-65
2021/04/01 10:09:16;;;;;;;14.02;3.78;;;16.60;99.90;;;;;;5011968;28;20521;-64
2021/04/01 10:12:05;;;;;;;16.17;3.72;;;16.60;99.90;;;;;;5006114;28;20030;-64
2021/04/01 10:14:32;;;;;;;17.73;3.80;;;16.70;99.90;;;;;;5005004;28;20100;-64
2021/04/01 10:17:04;;;;;;;14.57;3.90;;;17.40;99.90;;;;;;5004140;28;20044;-64
2021/04/01 10:20:03;;;;;;;18.70;3.97;;;17.10;99.90;;;;;;4999721;28;20394;-64
2021/04/01 10:22:32;;;;;;;9.63;3.88;;;17.30;99.90;;;;;;4999653;28;20061;-64
2021/04/01 10:28:03;;;;;;;13.18;4.07;;;17.00;99.90;;;;;;5002926;28;20092;-64
2021/04/01 10:30:32;;;;;;;14.85;3.72;;;16.90;99.90;;;;;;5004637;28;20567;-64
2021/04/01 10:33:10;;;;;;;15.15;4.25;;;17.40;99.90;;;;;;5001025;28;20092;-64
2021/04/01 10:35:37;;;;;;;14.30;4.15;;;17.90;99.90;;;;;;5003240;28;20072;-64
2021/04/01 10:38:04;;;;;;;10.55;4.40;;;17.90;99.90;;;;;;4999184;28;20024;-64
2021/04/01 10:40:32;;;;;;;13.48;3.50;;;17.70;99.90;;;;;;5003224;28;20026;-64
2021/04/01 10:43:06;;;;;;;10.07;3.67;;;17.80;99.90;;;;;;5000474;28;20025;-64
2021/04/01 10:45:35;;;;;;;17.45;4.38;;;18.00;99.90;;;;;;5002535;28;20384;-64
2021/04/01 10:48:29;;;;;;;21.70;4.10;;;18.00;99.90;;;;;;5006208;28;20046;-64
2021/04/01 10:50:59;;;;;;;22.33;4.45;;;18.00;99.90;;;;;;5022932;28;20733;-64
2021/04/01 10:53:25;;;;;;;59.05;7.68;;;17.70;99.90;;;;;;5014413;28;20084;-64
2021/04/01 10:55:52;;;;;;;23.80;4.32;;;17.60;99.90;;;;;;5024292;28;20104;-64
2021/04/01 10:58:18;;;;;;;47.45;7.03;;;17.70;99.90;;;;;;5014857;28;20501;-64
2021/04/01 11:00:56;;;;;;;9.82;3.75;;;18.30;99.90;;;;;;5005961;28;20026;-64
2021/04/01 11:03:27;;;;;;;24.33;4.55;;;18.70;99.90;;;;;;5002995;28;20033;-64
2021/04/01 11:05:55;;;;;;;12.80;3.83;;;18.80;99.90;;;;;;5020687;28;20111;-64
2021/04/01 11:08:23;;;;;;;14.85;3.97;;;18.50;99.90;;;;;;5007283;28;20030;-64
2021/04/01 11:11:00;;;;;;;10.60;3.65;;;18.40;99.90;;;;;;5019397;28;20079;-64
2021/04/01 11:13:37;;;;;;;11.85;3.35;;;18.40;99.90;;;;;;5002890;28;20030;-64
2021/04/01 11:16:08;;;;;;;15.60;4.15;;;19.20;99.90;;;;;;5019425;28;20058;-64
2021/04/01 11:18:36;;;;;;;18.98;3.75;;;19.00;99.90;;;;;;5005880;28;20446;-64
2021/04/01 11:21:05;;;;;;;14.95;3.70;;;19.60;99.90;;;;;;5016900;28;20503;-64
2021/04/01 11:23:34;;;;;;;15.55;3.47;;;19.30;99.90;;;;;;5003812;28;20037;-64
2021/04/01 11:26:00;;;;;;;17.38;3.45;;;19.00;99.90;;;;;;5006445;28;20089;-64
2021/04/01 11:28:33;;;;;;;14.13;3.78;;;19.00;99.90;;;;;;5005329;28;20140;-64
2021/04/01 11:30:59;;;;;;;10.68;3.03;;;19.50;99.90;;;;;;5006913;28;20077;-64
2021/04/01 11:33:26;;;;;;;8.05;2.90;;;19.40;99.90;;;;;;5003008;28;20050;-64
2021/04/01 11:38:41;;;;;;;10.13;3.58;;;19.40;99.90;;;;;;5001658;28;20025;-64
2021/04/01 11:41:09;;;;;;;12.68;3.30;;;19.30;99.90;;;;;;5005346;28;20705;-64
2021/04/01 11:43:36;;;;;;;11.05;3.67;;;19.00;99.90;;;;;;5000210;28;20116;-65
2021/04/01 11:46:14;;;;;;;10.90;3.67;;;19.70;99.90;;;;;;5010179;28;20609;-65
2021/04/01 11:48:40;;;;;;;12.40;3.95;;;19.60;99.90;;;;;;5010358;28;20117;-64
2021/04/01 11:51:29;;;;;;;8.18;3.33;;;19.10;99.90;;;;;;5006211;28;20073;-65
2021/04/01 11:53:55;;;;;;;19.67;4.00;;;20.10;99.90;;;;;;4997945;28;20514;-65
2021/04/01 11:56:22;;;;;;;14.73;3.97;;;20.00;99.90;;;;;;5006296;28;20034;-65
2021/04/01 11:58:49;;;;;;;16.65;3.92;;;20.30;99.90;;;;;;5003407;28;20056;-65
2021/04/01 12:01:28;;;;;;;14.70;4.00;;;20.50;99.90;;;;;;5005300;28;20104;-65
2021/04/01 12:06:23;;;;;;;25.15;4.20;;;20.50;99.90;;;;;;4991788;28;20430;-65
2021/04/01 12:08:49;;;;;;;12.32;3.88;;;20.00;99.90;;;;;;4997293;28;20400;-64
2021/04/01 12:11:14;;;;;;;16.75;3.40;;;20.30;99.90;;;;;;4995544;28;20027;-65
2021/04/01 12:13:40;;;;;;;9.38;3.88;;;20.50;99.90;;;;;;4997722;28;20041;-65
2021/04/01 12:16:15;;;;;;;15.95;3.80;;;20.80;99.90;;;;;;5004745;28;20030;-65
2021/04/01 12:18:42;;;;;;;21.65;3.55;;;20.80;99.90;;;;;;5004385;28;20579;-65
2021/04/01 12:21:08;;;;;;;18.17;3.53;;;20.80;99.90;;;;;;5003859;28;20084;-65
2021/04/01 12:24:02;;;;;;;12.07;3.72;;;21.40;99.90;;;;;;4996967;28;20387;-65
2021/04/01 12:26:30;;;;;;;14.77;3.38;;;21.40;99.90;;;;;;5007179;28;20034;-65
2021/04/01 12:28:58;;;;;;;14.07;3.80;;;21.00;99.90;;;;;;5010431;28;20112;-65
2021/04/01 12:31:37;;;;;;;14.75;3.50;;;20.40;99.90;;;;;;5012092;28;20014;-65
2021/04/01 12:34:03;;;;;;;27.52;4.00;;;20.80;99.90;;;;;;5008043;28;20053;-64
2021/04/01 12:36:33;;;;;;;7.43;3.17;;;20.90;99.90;;;;;;5004076;28;20046;-65
2021/04/01 12:38:59;;;;;;;11.93;3.47;;;21.00;99.90;;;;;;5001502;28;20112;-65
2021/04/01 12:41:31;;;;;;;15.15;3.30;;;20.90;99.90;;;;;;4992818;28;20523;-65
2021/04/01 12:43:58;;;;;;;14.70;3.50;;;20.80;99.90;;;;;;4992269;28;20483;-65
2021/04/01 12:46:41;;;;;;;12.43;3.30;;;20.80;99.90;;;;;;5005694;28;20026;-65
2021/04/01 12:49:09;;;;;;;22.17;3.20;;;21.30;99.90;;;;;;5012227;28;20025;-65
2021/04/01 12:51:46;;;;;;;14.88;3.03;;;21.90;99.90;;;;;;5022408;28;20121;-65
2021/04/01 12:54:20;;;;;;;21.70;3.58;;;22.10;99.60;;;;;;5014088;28;20075;-65
2021/04/01 12:56:53;;;;;;;12.02;3.15;;;21.80;99.50;;;;;;5023525;28;20035;-65
2021/04/01 12:59:29;;;;;;;9.57;2.88;;;22.00;99.20;;;;;;5020071;28;20061;-65
2021/04/01 13:02:03;;;;;;;15.75;3.50;;;22.00;99.10;;;;;;5003088;28;20022;-65
2021/04/01 13:04:30;;;;;;;16.55;3.05;;;21.90;98.40;;;;;;5001643;28;20022;-65
2021/04/01 13:07:22;;;;;;;20.02;3.45;;;22.00;98.80;;;;;;5003568;28;20061;-65
2021/04/01 13:12:32;;;;;;;13.40;2.90;;;22.70;97.90;;;;;;5000038;28;20514;-65
2021/04/01 13:14:59;;;;;;;22.10;3.70;;;22.70;97.90;;;;;;5006785;28;20026;-65
2021/04/01 13:17:25;;;;;;;14.77;3.50;;;22.50;98.00;;;;;;5008721;28;20030;-65
2021/04/01 13:19:50;;;;;;;16.83;2.80;;;22.50;98.60;;;;;;5008379;28;20075;-65
2021/04/01 13:22:25;;;;;;;11.23;2.95;;;22.70;98.30;;;;;;4999641;28;20053;-65
2021/04/01 13:27:18;;;;;;;20.15;3.88;;;22.20;98.10;;;;;;5002587;28;20119;-65
2021/04/01 13:29:51;;;;;;;9.07;3.05;;;22.30;98.60;;;;;;5013861;28;20236;-65
2021/04/01 13:35:04;;;;;;;29.90;3.95;;;23.30;97.00;;;;;;5010187;28;20044;-65
2021/04/01 13:37:33;;;;;;;17.58;2.78;;;22.60;97.40;;;;;;5000666;28;20044;-66
2021/04/01 13:40:03;;;;;;;15.88;3.38;;;21.90;97.10;;;;;;5000240;28;20018;-65
2021/04/01 13:42:37;;;;;;;16.92;2.85;;;22.20;98.10;;;;;;4997368;28;20118;-64
2021/04/01 13:45:09;;;;;;;10.48;3.60;;;22.50;97.40;;;;;;4990903;28;20411;-65
2021/04/01 13:47:40;;;;;;;13.98;2.85;;;23.00;97.50;;;;;;4993832;28;20034;-65
2021/04/01 13:50:06;;;;;;;12.75;3.10;;;22.30;97.70;;;;;;5009319;28;20033;-65
2021/04/01 13:52:39;;;;;;;12.27;3.25;;;22.10;96.90;;;;;;5006747;28;20514;-65
2021/04/01 14:11:17;;;;;;;11.95;3.17;;;23.00;96.10;;;;;;5004062;28;20109;-65
2021/04/01 14:13:44;;;;;;;9.27;2.92;;;23.80;96.00;;;;;;5004009;28;20029;-65
2021/04/01 14:16:10;;;;;;;9.85;3.10;;;23.60;95.80;;;;;;5005518;28;20041;-65
2021/04/01 14:18:36;;;;;;;9.27;2.78;;;23.10;96.20;;;;;;5005594;28;20033;-64
2021/04/01 14:21:04;;;;;;;11.82;3.20;;;23.50;95.50;;;;;;5006921;28;20057;-65
2021/04/01 14:23:31;;;;;;;11.15;2.83;;;23.10;95.90;;;;;;5008979;28;20083;-65
2021/04/01 14:26:02;;;;;;;9.23;2.72;;;23.10;96.00;;;;;;5007556;28;20029;-64
2021/04/01 14:28:27;;;;;;;13.07;3.13;;;23.60;96.00;;;;;;4996788;28;20034;-65
2021/04/01 14:30:53;;;;;;;10.23;3.28;;;23.40;95.10;;;;;;5007182;28;20066;-65
2021/04/01 14:33:21;;;;;;;7.82;2.80;;;22.90;95.90;;;;;;4994640;28;20117;-65
2021/04/01 14:35:48;;;;;;;11.23;2.83;;;22.50;95.20;;;;;;5007419;28;20097;-65
2021/04/01 14:38:15;;;;;;;20.20;3.28;;;22.80;95.60;;;;;;5001712;28;20027;-65
2021/04/01 14:40:54;;;;;;;76.82;6.97;;;23.20;95.30;;;;;;5025928;28;20083;-65
2021/04/01 14:43:23;;;;;;;12.48;2.90;;;23.00;95.70;;;;;;5005973;28;20030;-65
2021/04/01 14:45:49;;;;;;;10.13;3.00;;;23.90;95.20;;;;;;5007740;28;20033;-65
2021/04/01 14:48:15;;;;;;;15.38;2.83;;;23.70;94.40;;;;;;5012437;28;20030;-65
2021/04/01 14:50:41;;;;;;;10.93;2.50;;;23.50;94.60;;;;;;5011150;28;20026;-65
2021/04/01 14:53:15;;;;;;;14.23;3.05;;;24.10;94.50;;;;;;5012314;28;20022;-65
2021/04/01 14:55:40;;;;;;;11.25;2.92;;;24.60;93.90;;;;;;5025121;28;20021;-65
2021/04/01 14:58:09;;;;;;;7.25;2.80;;;24.10;92.90;;;;;;5003502;28;20028;-65
2021/04/01 15:00:39;;;;;;;9.68;3.00;;;24.30;94.30;;;;;;5010437;28;20101;-65